sensor_id;sensor_type;location;lat;lon;timestamp;P1;durP1;ratioP1;P2;durP2;ratioP2
62654;SDS011;48717;55.556;37.816;2023-04-24T00:02:08;8.00;;;4.50;;
62654;SDS011;48717;55.556;37.816;2023-04-24T00:04:38;8.32;;;4.30;;
62654;SDS011;48717;55.556;37.816;2023-04-24T00:07:08;8.60;;;4.68;;
62654;SDS011;48717;55.556;37.816;2023-04-24T00:09:35;7.93;;;4.35;;
62654;SDS011;48717;55.556;37.816;2023-04-24T00:12:03;7.25;;;4.68;;
62654;SDS011;48717;55.556;37.816;2023-04-24T00:14:31;9.30;;;4.97;;
62654;SDS011;48717;55.556;37.816;2023-04-24T00:16:58;11.15;;;5.32;;
62654;SDS011;48717;55.556;37.816;2023-04-24T00:19:26;8.23;;;4.95;;
62654;SDS011;48717;55.556;37.816;2023-04-24T00:21:53;9.68;;;5.07;;
62654;SDS011;48717;55.556;37.816;2023-04-24T00:24:20;9.27;;;5.20;;
62654;SDS011;48717;55.556;37.816;2023-04-24T00:26:48;11.30;;;5.30;;
62654;SDS011;48717;55.556;37.816;2023-04-24T00:29:15;10.60;;;5.47;;
62654;SDS011;48717;55.556;37.816;2023-04-24T00:31:42;17.10;;;5.63;;
62654;SDS011;48717;55.556;37.816;2023-04-24T00:34:09;10.98;;;5.93;;
62654;SDS011;48717;55.556;37.816;2023-04-24T00:36:38;15.63;;;6.53;;
62654;SDS011;48717;55.556;37.816;2023-04-24T00:39:06;15.05;;;6.55;;
62654;SDS011;48717;55.556;37.816;2023-04-24T00:41:35;13.68;;;6.90;;
62654;SDS011;48717;55.556;37.816;2023-04-24T00:44:02;40.30;;;18.13;;
62654;SDS011;48717;55.556;37.816;2023-04-24T00:46:29;11.48;;;6.30;;
62654;SDS011;48717;55.556;37.816;2023-04-24T00:48:58;12.13;;;6.50;;
62654;SDS011;48717;55.556;37.816;2023-04-24T00:51:26;11.00;;;6.50;;
62654;SDS011;48717;55.556;37.816;2023-04-24T00:53:54;15.10;;;7.25;;
62654;SDS011;48717;55.556;37.816;2023-04-24T00:56:21;17.13;;;7.60;;
62654;SDS011;48717;55.556;37.816;2023-04-24T00:58:48;11.18;;;7.30;;
62654;SDS011;48717;55.556;37.816;2023-04-24T01:01:16;14.77;;;7.47;;
62654;SDS011;48717;55.556;37.816;2023-04-24T01:03:51;15.05;;;8.38;;
62654;SDS011;48717;55.556;37.816;2023-04-24T01:06:19;13.07;;;8.10;;
62654;SDS011;48717;55.556;37.816;2023-04-24T01:08:47;12.05;;;7.80;;
62654;SDS011;48717;55.556;37.816;2023-04-24T01:11:15;17.33;;;8.38;;
62654;SDS011;48717;55.556;37.816;2023-04-24T01:13:44;11.40;;;7.50;;
62654;SDS011;48717;55.556;37.816;2023-04-24T01:16:14;15.52;;;8.20;;
62654;SDS011;48717;55.556;37.816;2023-04-24T01:21:11;16.60;;;9.57;;
62654;SDS011;48717;55.556;37.816;2023-04-24T01:23:40;15.40;;;8.07;;
62654;SDS011;48717;55.556;37.816;2023-04-24T01:26:07;12.70;;;8.30;;
62654;SDS011;48717;55.556;37.816;2023-04-24T01:28:35;13.77;;;8.30;;
62654;SDS011;48717;55.556;37.816;2023-04-24T01:31:04;12.13;;;8.07;;
62654;SDS011;48717;55.556;37.816;2023-04-24T01:33:32;17.42;;;8.73;;
62654;SDS011;48717;55.556;37.816;2023-04-24T01:36:00;13.55;;;8.35;;
62654;SDS011;48717;55.556;37.816;2023-04-24T01:38:28;15.05;;;8.80;;
62654;SDS011;48717;55.556;37.816;2023-04-24T01:40:55;11.90;;;8.45;;
62654;SDS011;48717;55.556;37.816;2023-04-24T01:43:24;16.65;;;9.40;;
62654;SDS011;48717;55.556;37.816;2023-04-24T01:45:52;13.70;;;9.43;;
62654;SDS011;48717;55.556;37.816;2023-04-24T01:48:19;12.80;;;7.35;;
62654;SDS011;48717;55.556;37.816;2023-04-24T01:50:46;15.80;;;8.48;;
62654;SDS011;48717;55.556;37.816;2023-04-24T01:53:13;12.75;;;9.40;;
62654;SDS011;48717;55.556;37.816;2023-04-24T01:55:41;14.18;;;9.43;;
62654;SDS011;48717;55.556;37.816;2023-04-24T01:58:08;14.52;;;9.32;;
62654;SDS011;48717;55.556;37.816;2023-04-24T02:00:35;13.90;;;9.23;;
62654;SDS011;48717;55.556;37.816;2023-04-24T02:03:03;14.05;;;9.30;;
62654;SDS011;48717;55.556;37.816;2023-04-24T02:05:31;14.55;;;8.95;;
62654;SDS011;48717;55.556;37.816;2023-04-24T02:07:58;15.90;;;9.90;;
62654;SDS011;48717;55.556;37.816;2023-04-24T02:10:25;15.18;;;9.90;;
62654;SDS011;48717;55.556;37.816;2023-04-24T02:12:52;13.77;;;9.27;;
62654;SDS011;48717;55.556;37.816;2023-04-24T02:15:23;17.50;;;10.73;;
62654;SDS011;48717;55.556;37.816;2023-04-24T02:17:50;13.85;;;10.18;;
62654;SDS011;48717;55.556;37.816;2023-04-24T02:20:18;14.20;;;9.93;;
62654;SDS011;48717;55.556;37.816;2023-04-24T02:22:45;15.45;;;10.40;;
62654;SDS011;48717;55.556;37.816;2023-04-24T02:25:12;16.38;;;10.57;;
62654;SDS011;48717;55.556;37.816;2023-04-24T02:27:40;16.48;;;10.32;;
62654;SDS011;48717;55.556;37.816;2023-04-24T02:30:07;19.38;;;11.07;;
62654;SDS011;48717;55.556;37.816;2023-04-24T02:32:35;14.95;;;10.52;;
62654;SDS011;48717;55.556;37.816;2023-04-24T02:35:02;18.65;;;10.38;;
62654;SDS011;48717;55.556;37.816;2023-04-24T02:37:29;16.48;;;10.20;;
62654;SDS011;48717;55.556;37.816;2023-04-24T02:39:56;19.45;;;9.57;;
62654;SDS011;48717;55.556;37.816;2023-04-24T02:42:24;16.55;;;10.48;;
62654;SDS011;48717;55.556;37.816;2023-04-24T02:44:51;15.48;;;10.25;;
62654;SDS011;48717;55.556;37.816;2023-04-24T02:47:18;17.52;;;11.02;;
62654;SDS011;48717;55.556;37.816;2023-04-24T02:49:45;19.85;;;10.85;;
62654;SDS011;48717;55.556;37.816;2023-04-24T02:52:12;21.30;;;9.82;;
62654;SDS011;48717;55.556;37.816;2023-04-24T02:54:41;15.68;;;10.13;;
62654;SDS011;48717;55.556;37.816;2023-04-24T02:57:08;14.57;;;10.02;;
62654;SDS011;48717;55.556;37.816;2023-04-24T02:59:38;18.05;;;10.00;;
62654;SDS011;48717;55.556;37.816;2023-04-24T03:02:05;14.90;;;10.25;;
62654;SDS011;48717;55.556;37.816;2023-04-24T03:04:32;19.40;;;10.60;;
62654;SDS011;48717;55.556;37.816;2023-04-24T03:06:59;16.17;;;10.75;;
62654;SDS011;48717;55.556;37.816;2023-04-24T03:09:27;16.45;;;10.55;;
62654;SDS011;48717;55.556;37.816;2023-04-24T03:11:54;16.13;;;10.40;;
62654;SDS011;48717;55.556;37.816;2023-04-24T03:14:23;15.45;;;10.50;;
62654;SDS011;48717;55.556;37.816;2023-04-24T03:16:51;20.45;;;10.70;;
62654;SDS011;48717;55.556;37.816;2023-04-24T03:19:18;17.00;;;10.80;;
62654;SDS011;48717;55.556;37.816;2023-04-24T03:21:58;17.25;;;10.80;;
62654;SDS011;48717;55.556;37.816;2023-04-24T03:24:25;16.38;;;10.48;;
62654;SDS011;48717;55.556;37.816;2023-04-24T03:26:55;15.60;;;10.50;;
62654;SDS011;48717;55.556;37.816;2023-04-24T03:29:58;15.77;;;9.57;;
62654;SDS011;48717;55.556;37.816;2023-04-24T03:32:34;18.98;;;10.45;;
62654;SDS011;48717;55.556;37.816;2023-04-24T03:35:02;17.88;;;10.65;;
62654;SDS011;48717;55.556;37.816;2023-04-24T03:37:30;21.58;;;10.60;;
62654;SDS011;48717;55.556;37.816;2023-04-24T03:40:17;19.17;;;10.15;;
62654;SDS011;48717;55.556;37.816;2023-04-24T03:42:45;14.20;;;9.05;;
62654;SDS011;48717;55.556;37.816;2023-04-24T03:45:13;20.33;;;10.10;;
62654;SDS011;48717;55.556;37.816;2023-04-24T03:47:44;14.73;;;9.65;;
62654;SDS011;48717;55.556;37.816;2023-04-24T03:50:11;16.30;;;9.63;;
62654;SDS011;48717;55.556;37.816;2023-04-24T03:52:41;15.40;;;9.25;;
62654;SDS011;48717;55.556;37.816;2023-04-24T03:55:09;13.25;;;9.15;;
62654;SDS011;48717;55.556;37.816;2023-04-24T03:57:44;12.27;;;8.27;;
62654;SDS011;48717;55.556;37.816;2023-04-24T04:00:19;17.63;;;9.35;;
62654;SDS011;48717;55.556;37.816;2023-04-24T04:03:00;14.38;;;9.02;;
62654;SDS011;48717;55.556;37.816;2023-04-24T04:05:28;16.38;;;9.35;;
62654;SDS011;48717;55.556;37.816;2023-04-24T04:07:56;17.95;;;9.45;;
62654;SDS011;48717;55.556;37.816;2023-04-24T04:10:23;19.55;;;10.15;;
62654;SDS011;48717;55.556;37.816;2023-04-24T04:12:50;12.20;;;9.25;;
62654;SDS011;48717;55.556;37.816;2023-04-24T04:15:18;15.75;;;9.93;;
62654;SDS011;48717;55.556;37.816;2023-04-24T04:17:45;17.55;;;9.18;;
62654;SDS011;48717;55.556;37.816;2023-04-24T04:20:12;17.58;;;9.48;;
62654;SDS011;48717;55.556;37.816;2023-04-24T04:22:40;18.55;;;9.40;;
62654;SDS011;48717;55.556;37.816;2023-04-24T04:25:14;20.00;;;9.70;;
62654;SDS011;48717;55.556;37.816;2023-04-24T04:27:42;18.70;;;9.77;;
62654;SDS011;48717;55.556;37.816;2023-04-24T04:30:11;18.83;;;10.17;;
62654;SDS011;48717;55.556;37.816;2023-04-24T04:32:55;15.82;;;9.73;;
62654;SDS011;48717;55.556;37.816;2023-04-24T04:35:23;19.40;;;9.35;;
62654;SDS011;48717;55.556;37.816;2023-04-24T04:37:51;15.00;;;8.68;;
62654;SDS011;48717;55.556;37.816;2023-04-24T04:40:35;17.10;;;9.60;;
62654;SDS011;48717;55.556;37.816;2023-04-24T04:43:04;18.98;;;9.27;;
62654;SDS011;48717;55.556;37.816;2023-04-24T04:45:39;18.65;;;11.07;;
62654;SDS011;48717;55.556;37.816;2023-04-24T04:48:27;16.02;;;9.55;;
62654;SDS011;48717;55.556;37.816;2023-04-24T04:50:58;16.95;;;9.25;;
62654;SDS011;48717;55.556;37.816;2023-04-24T04:53:26;15.90;;;9.02;;
62654;SDS011;48717;55.556;37.816;2023-04-24T04:55:53;16.42;;;8.90;;
62654;SDS011;48717;55.556;37.816;2023-04-24T04:58:25;17.63;;;8.88;;
62654;SDS011;48717;55.556;37.816;2023-04-24T05:00:56;11.63;;;7.93;;
62654;SDS011;48717;55.556;37.816;2023-04-24T05:03:28;16.30;;;8.88;;
62654;SDS011;48717;55.556;37.816;2023-04-24T05:06:01;25.70;;;9.63;;
62654;SDS011;48717;55.556;37.816;2023-04-24T05:08:32;24.13;;;9.80;;
62654;SDS011;48717;55.556;37.816;2023-04-24T05:11:00;20.00;;;9.15;;
62654;SDS011;48717;55.556;37.816;2023-04-24T05:13:29;17.08;;;9.07;;
62654;SDS011;48717;55.556;37.816;2023-04-24T05:16:14;16.85;;;8.45;;
62654;SDS011;48717;55.556;37.816;2023-04-24T05:18:42;16.27;;;8.65;;
62654;SDS011;48717;55.556;37.816;2023-04-24T05:21:13;20.55;;;8.25;;
62654;SDS011;48717;55.556;37.816;2023-04-24T05:23:42;17.23;;;8.60;;
62654;SDS011;48717;55.556;37.816;2023-04-24T05:26:13;12.90;;;7.80;;
62654;SDS011;48717;55.556;37.816;2023-04-24T05:28:41;14.15;;;7.82;;
62654;SDS011;48717;55.556;37.816;2023-04-24T05:31:11;16.55;;;7.50;;
62654;SDS011;48717;55.556;37.816;2023-04-24T05:33:39;12.85;;;7.18;;
62654;SDS011;48717;55.556;37.816;2023-04-24T05:36:06;13.82;;;7.30;;
62654;SDS011;48717;55.556;37.816;2023-04-24T05:38:34;13.27;;;6.97;;
62654;SDS011;48717;55.556;37.816;2023-04-24T05:41:01;13.48;;;7.20;;
62654;SDS011;48717;55.556;37.816;2023-04-24T05:43:28;10.95;;;6.68;;
62654;SDS011;48717;55.556;37.816;2023-04-24T05:45:55;12.68;;;6.57;;
62654;SDS011;48717;55.556;37.816;2023-04-24T05:48:22;11.57;;;7.05;;
62654;SDS011;48717;55.556;37.816;2023-04-24T05:50:50;12.65;;;6.97;;
62654;SDS011;48717;55.556;37.816;2023-04-24T05:53:19;11.88;;;6.72;;
62654;SDS011;48717;55.556;37.816;2023-04-24T05:55:47;13.80;;;6.82;;
62654;SDS011;48717;55.556;37.816;2023-04-24T05:58:14;12.15;;;7.22;;
62654;SDS011;48717;55.556;37.816;2023-04-24T06:00:45;11.02;;;6.05;;
62654;SDS011;48717;55.556;37.816;2023-04-24T06:03:13;12.88;;;6.50;;
62654;SDS011;48717;55.556;37.816;2023-04-24T06:05:42;14.65;;;6.57;;
62654;SDS011;48717;55.556;37.816;2023-04-24T06:08:10;16.02;;;7.40;;
62654;SDS011;48717;55.556;37.816;2023-04-24T06:10:39;8.90;;;6.20;;
62654;SDS011;48717;55.556;37.816;2023-04-24T06:13:08;12.05;;;6.75;;
62654;SDS011;48717;55.556;37.816;2023-04-24T06:15:38;8.52;;;6.10;;
62654;SDS011;48717;55.556;37.816;2023-04-24T06:18:08;14.18;;;6.70;;
62654;SDS011;48717;55.556;37.816;2023-04-24T06:20:38;17.02;;;7.45;;
62654;SDS011;48717;55.556;37.816;2023-04-24T06:23:08;37.50;;;7.30;;
62654;SDS011;48717;55.556;37.816;2023-04-24T06:25:35;10.93;;;5.88;;
62654;SDS011;48717;55.556;37.816;2023-04-24T06:28:03;15.32;;;6.28;;
62654;SDS011;48717;55.556;37.816;2023-04-24T06:30:30;16.65;;;6.70;;
62654;SDS011;48717;55.556;37.816;2023-04-24T06:32:58;13.60;;;6.43;;
62654;SDS011;48717;55.556;37.816;2023-04-24T06:35:39;24.45;;;6.85;;
62654;SDS011;48717;55.556;37.816;2023-04-24T06:38:06;17.00;;;7.88;;
62654;SDS011;48717;55.556;37.816;2023-04-24T06:40:33;15.10;;;6.50;;
62654;SDS011;48717;55.556;37.816;2023-04-24T06:43:01;13.63;;;5.70;;
62654;SDS011;48717;55.556;37.816;2023-04-24T06:45:29;12.60;;;5.88;;
62654;SDS011;48717;55.556;37.816;2023-04-24T06:47:57;20.58;;;5.93;;
62654;SDS011;48717;55.556;37.816;2023-04-24T06:50:24;14.57;;;5.38;;
62654;SDS011;48717;55.556;37.816;2023-04-24T06:52:52;10.80;;;5.78;;
62654;SDS011;48717;55.556;37.816;2023-04-24T06:55:20;10.50;;;4.40;;
62654;SDS011;48717;55.556;37.816;2023-04-24T06:57:48;6.90;;;4.90;;
62654;SDS011;48717;55.556;37.816;2023-04-24T07:00:16;11.35;;;4.50;;
62654;SDS011;48717;55.556;37.816;2023-04-24T07:02:44;7.20;;;5.10;;
62654;SDS011;48717;55.556;37.816;2023-04-24T07:05:12;10.40;;;4.95;;
62654;SDS011;48717;55.556;37.816;2023-04-24T07:07:42;9.93;;;4.72;;
62654;SDS011;48717;55.556;37.816;2023-04-24T07:10:10;12.05;;;5.65;;
62654;SDS011;48717;55.556;37.816;2023-04-24T07:12:37;6.97;;;4.03;;
62654;SDS011;48717;55.556;37.816;2023-04-24T07:15:05;8.93;;;5.15;;
62654;SDS011;48717;55.556;37.816;2023-04-24T07:17:33;11.88;;;5.00;;
62654;SDS011;48717;55.556;37.816;2023-04-24T07:20:01;17.50;;;5.18;;
62654;SDS011;48717;55.556;37.816;2023-04-24T07:22:28;10.93;;;7.15;;
62654;SDS011;48717;55.556;37.816;2023-04-24T07:24:55;10.48;;;5.35;;
62654;SDS011;48717;55.556;37.816;2023-04-24T07:27:23;8.80;;;5.50;;
62654;SDS011;48717;55.556;37.816;2023-04-24T07:29:50;9.15;;;5.15;;
62654;SDS011;48717;55.556;37.816;2023-04-24T07:32:17;9.30;;;4.63;;
62654;SDS011;48717;55.556;37.816;2023-04-24T07:34:44;5.05;;;4.32;;
62654;SDS011;48717;55.556;37.816;2023-04-24T07:37:12;7.70;;;4.53;;
62654;SDS011;48717;55.556;37.816;2023-04-24T07:39:39;8.98;;;4.30;;
62654;SDS011;48717;55.556;37.816;2023-04-24T07:42:06;8.55;;;4.40;;
62654;SDS011;48717;55.556;37.816;2023-04-24T07:44:33;20.23;;;4.90;;
62654;SDS011;48717;55.556;37.816;2023-04-24T07:47:02;15.65;;;5.90;;
62654;SDS011;48717;55.556;37.816;2023-04-24T07:49:29;8.07;;;4.50;;
62654;SDS011;48717;55.556;37.816;2023-04-24T07:51:57;15.57;;;4.80;;
62654;SDS011;48717;55.556;37.816;2023-04-24T07:54:24;5.53;;;4.63;;
62654;SDS011;48717;55.556;37.816;2023-04-24T07:56:51;18.08;;;6.50;;
62654;SDS011;48717;55.556;37.816;2023-04-24T07:59:19;87.50;;;8.23;;
62654;SDS011;48717;55.556;37.816;2023-04-24T08:01:46;29.63;;;7.93;;
62654;SDS011;48717;55.556;37.816;2023-04-24T08:04:13;42.22;;;7.97;;
62654;SDS011;48717;55.556;37.816;2023-04-24T08:06:41;16.45;;;5.88;;
62654;SDS011;48717;55.556;37.816;2023-04-24T08:09:08;13.07;;;5.50;;
62654;SDS011;48717;55.556;37.816;2023-04-24T08:11:35;11.32;;;6.15;;
62654;SDS011;48717;55.556;37.816;2023-04-24T08:14:02;12.23;;;5.90;;
62654;SDS011;48717;55.556;37.816;2023-04-24T08:16:30;10.20;;;5.45;;
62654;SDS011;48717;55.556;37.816;2023-04-24T08:18:57;8.68;;;5.10;;
62654;SDS011;48717;55.556;37.816;2023-04-24T08:21:24;49.67;;;7.10;;
62654;SDS011;48717;55.556;37.816;2023-04-24T08:23:53;18.35;;;5.32;;
62654;SDS011;48717;55.556;37.816;2023-04-24T08:26:20;26.15;;;5.38;;
62654;SDS011;48717;55.556;37.816;2023-04-24T08:28:47;9.05;;;5.03;;
62654;SDS011;48717;55.556;37.816;2023-04-24T08:31:14;16.95;;;5.63;;
62654;SDS011;48717;55.556;37.816;2023-04-24T08:33:41;16.10;;;4.70;;
62654;SDS011;48717;55.556;37.816;2023-04-24T08:36:11;8.82;;;4.80;;
62654;SDS011;48717;55.556;37.816;2023-04-24T08:38:38;8.95;;;4.35;;
62654;SDS011;48717;55.556;37.816;2023-04-24T08:41:08;14.32;;;4.57;;
62654;SDS011;48717;55.556;37.816;2023-04-24T08:43:36;21.42;;;5.43;;
62654;SDS011;48717;55.556;37.816;2023-04-24T08:46:05;14.90;;;5.00;;
62654;SDS011;48717;55.556;37.816;2023-04-24T08:48:38;13.15;;;5.30;;
62654;SDS011;48717;55.556;37.816;2023-04-24T08:51:07;7.60;;;4.93;;
62654;SDS011;48717;55.556;37.816;2023-04-24T08:53:35;9.10;;;5.03;;
62654;SDS011;48717;55.556;37.816;2023-04-24T08:56:03;6.15;;;4.70;;
62654;SDS011;48717;55.556;37.816;2023-04-24T08:58:31;12.20;;;9.50;;
62654;SDS011;48717;55.556;37.816;2023-04-24T09:00:58;16.48;;;6.85;;
62654;SDS011;48717;55.556;37.816;2023-04-24T09:03:27;8.38;;;5.20;;
62654;SDS011;48717;55.556;37.816;2023-04-24T09:05:55;22.42;;;5.90;;
62654;SDS011;48717;55.556;37.816;2023-04-24T09:08:25;6.13;;;4.88;;
62654;SDS011;48717;55.556;37.816;2023-04-24T09:10:53;16.85;;;5.30;;
62654;SDS011;48717;55.556;37.816;2023-04-24T09:13:20;12.38;;;4.80;;
62654;SDS011;48717;55.556;37.816;2023-04-24T09:15:47;6.20;;;4.80;;
62654;SDS011;48717;55.556;37.816;2023-04-24T09:18:15;13.48;;;5.45;;
62654;SDS011;48717;55.556;37.816;2023-04-24T09:21:04;5.53;;;4.65;;
62654;SDS011;48717;55.556;37.816;2023-04-24T09:23:31;11.70;;;5.38;;
62654;SDS011;48717;55.556;37.816;2023-04-24T09:25:59;8.13;;;4.60;;
62654;SDS011;48717;55.556;37.816;2023-04-24T09:28:29;7.60;;;5.22;;
62654;SDS011;48717;55.556;37.816;2023-04-24T09:31:12;11.80;;;5.28;;
62654;SDS011;48717;55.556;37.816;2023-04-24T09:34:19;11.18;;;5.82;;
62654;SDS011;48717;55.556;37.816;2023-04-24T09:36:36;9.38;;;5.30;;
62654;SDS011;48717;55.556;37.816;2023-04-24T09:39:05;14.93;;;5.50;;
62654;SDS011;48717;55.556;37.816;2023-04-24T09:41:49;11.23;;;4.60;;
62654;SDS011;48717;55.556;37.816;2023-04-24T09:44:21;11.65;;;5.38;;
62654;SDS011;48717;55.556;37.816;2023-04-24T09:46:59;13.18;;;5.55;;
62654;SDS011;48717;55.556;37.816;2023-04-24T09:49:28;8.68;;;4.55;;
62654;SDS011;48717;55.556;37.816;2023-04-24T09:52:03;5.63;;;4.03;;
62654;SDS011;48717;55.556;37.816;2023-04-24T09:54:31;8.00;;;4.40;;
62654;SDS011;48717;55.556;37.816;2023-04-24T09:56:59;8.13;;;4.68;;
62654;SDS011;48717;55.556;37.816;2023-04-24T09:59:27;10.30;;;4.65;;
62654;SDS011;48717;55.556;37.816;2023-04-24T10:01:54;9.52;;;5.55;;
62654;SDS011;48717;55.556;37.816;2023-04-24T10:04:23;10.95;;;5.30;;
62654;SDS011;48717;55.556;37.816;2023-04-24T10:06:53;11.07;;;4.80;;
62654;SDS011;48717;55.556;37.816;2023-04-24T10:09:25;6.28;;;5.25;;
62654;SDS011;48717;55.556;37.816;2023-04-24T10:11:56;11.18;;;5.07;;
62654;SDS011;48717;55.556;37.816;2023-04-24T10:14:24;5.90;;;4.28;;
62654;SDS011;48717;55.556;37.816;2023-04-24T10:16:53;9.38;;;6.65;;
62654;SDS011;48717;55.556;37.816;2023-04-24T10:19:21;10.40;;;7.35;;
62654;SDS011;48717;55.556;37.816;2023-04-24T10:21:52;6.47;;;4.70;;
62654;SDS011;48717;55.556;37.816;2023-04-24T10:24:22;6.22;;;4.63;;
62654;SDS011;48717;55.556;37.816;2023-04-24T10:26:49;4.82;;;3.80;;
62654;SDS011;48717;55.556;37.816;2023-04-24T10:29:18;5.80;;;3.88;;
62654;SDS011;48717;55.556;37.816;2023-04-24T10:31:46;6.43;;;4.00;;
62654;SDS011;48717;55.556;37.816;2023-04-24T10:34:14;5.32;;;4.00;;
62654;SDS011;48717;55.556;37.816;2023-04-24T10:36:51;14.77;;;3.80;;
62654;SDS011;48717;55.556;37.816;2023-04-24T10:39:22;6.57;;;4.45;;
62654;SDS011;48717;55.556;37.816;2023-04-24T10:41:53;7.45;;;4.40;;
62654;SDS011;48717;55.556;37.816;2023-04-24T10:44:24;8.25;;;5.43;;
62654;SDS011;48717;55.556;37.816;2023-04-24T10:46:54;14.40;;;4.43;;
62654;SDS011;48717;55.556;37.816;2023-04-24T10:49:30;9.13;;;5.07;;
62654;SDS011;48717;55.556;37.816;2023-04-24T10:52:04;11.57;;;6.00;;
62654;SDS011;48717;55.556;37.816;2023-04-24T10:59:51;12.45;;;5.43;;
62654;SDS011;48717;55.556;37.816;2023-04-24T11:02:37;5.50;;;3.50;;
62654;SDS011;48717;55.556;37.816;2023-04-24T11:05:06;5.90;;;4.45;;
62654;SDS011;48717;55.556;37.816;2023-04-24T11:10:39;4.95;;;3.45;;
62654;SDS011;48717;55.556;37.816;2023-04-24T11:13:10;5.53;;;3.40;;
62654;SDS011;48717;55.556;37.816;2023-04-24T11:15:41;6.80;;;4.40;;
62654;SDS011;48717;55.556;37.816;2023-04-24T11:18:15;5.05;;;3.50;;
62654;SDS011;48717;55.556;37.816;2023-04-24T11:20:43;10.15;;;4.15;;
62654;SDS011;48717;55.556;37.816;2023-04-24T11:23:12;3.65;;;3.30;;
62654;SDS011;48717;55.556;37.816;2023-04-24T11:25:41;6.05;;;3.42;;
62654;SDS011;48717;55.556;37.816;2023-04-24T11:28:08;4.50;;;3.42;;
62654;SDS011;48717;55.556;37.816;2023-04-24T11:30:43;4.93;;;3.78;;
62654;SDS011;48717;55.556;37.816;2023-04-24T11:33:10;3.95;;;3.35;;
62654;SDS011;48717;55.556;37.816;2023-04-24T11:35:39;6.80;;;3.72;;
62654;SDS011;48717;55.556;37.816;2023-04-24T11:38:07;4.95;;;3.47;;
62654;SDS011;48717;55.556;37.816;2023-04-24T11:40:39;10.73;;;4.18;;
62654;SDS011;48717;55.556;37.816;2023-04-24T11:43:06;23.23;;;4.13;;
62654;SDS011;48717;55.556;37.816;2023-04-24T11:45:35;7.37;;;3.50;;
62654;SDS011;48717;55.556;37.816;2023-04-24T11:48:02;5.28;;;3.20;;
62654;SDS011;48717;55.556;37.816;2023-04-24T11:50:30;11.13;;;4.07;;
62654;SDS011;48717;55.556;37.816;2023-04-24T11:52:57;10.05;;;3.90;;
62654;SDS011;48717;55.556;37.816;2023-04-24T11:55:27;5.63;;;3.80;;
62654;SDS011;48717;55.556;37.816;2023-04-24T11:57:58;6.70;;;3.90;;
62654;SDS011;48717;55.556;37.816;2023-04-24T12:00:27;8.05;;;3.65;;
62654;SDS011;48717;55.556;37.816;2023-04-24T12:03:09;6.28;;;3.95;;
62654;SDS011;48717;55.556;37.816;2023-04-24T12:05:39;5.90;;;3.78;;
62654;SDS011;48717;55.556;37.816;2023-04-24T12:08:08;8.60;;;4.68;;
62654;SDS011;48717;55.556;37.816;2023-04-24T12:10:35;4.85;;;3.80;;
62654;SDS011;48717;55.556;37.816;2023-04-24T12:13:02;7.25;;;3.78;;
62654;SDS011;48717;55.556;37.816;2023-04-24T12:15:29;5.63;;;3.60;;
62654;SDS011;48717;55.556;37.816;2023-04-24T12:17:56;7.05;;;3.35;;
62654;SDS011;48717;55.556;37.816;2023-04-24T12:20:28;8.15;;;3.53;;
62654;SDS011;48717;55.556;37.816;2023-04-24T12:22:57;4.63;;;3.17;;
62654;SDS011;48717;55.556;37.816;2023-04-24T12:25:29;5.43;;;3.55;;
62654;SDS011;48717;55.556;37.816;2023-04-24T12:30:30;17.33;;;3.30;;
62654;SDS011;48717;55.556;37.816;2023-04-24T12:32:59;8.07;;;2.80;;
62654;SDS011;48717;55.556;37.816;2023-04-24T12:35:31;5.07;;;3.13;;
62654;SDS011;48717;55.556;37.816;2023-04-24T12:38:13;3.90;;;2.90;;
62654;SDS011;48717;55.556;37.816;2023-04-24T12:40:42;5.47;;;3.40;;
62654;SDS011;48717;55.556;37.816;2023-04-24T12:43:17;7.40;;;3.22;;
62654;SDS011;48717;55.556;37.816;2023-04-24T12:45:49;8.10;;;3.40;;
62654;SDS011;48717;55.556;37.816;2023-04-24T12:48:16;12.65;;;4.05;;
62654;SDS011;48717;55.556;37.816;2023-04-24T12:50:44;6.55;;;3.22;;
62654;SDS011;48717;55.556;37.816;2023-04-24T12:53:13;6.85;;;3.30;;
62654;SDS011;48717;55.556;37.816;2023-04-24T12:55:41;4.88;;;3.30;;
62654;SDS011;48717;55.556;37.816;2023-04-24T12:58:09;6.50;;;3.08;;
62654;SDS011;48717;55.556;37.816;2023-04-24T13:00:36;7.35;;;3.00;;
62654;SDS011;48717;55.556;37.816;2023-04-24T13:03:04;4.47;;;3.20;;
62654;SDS011;48717;55.556;37.816;2023-04-24T13:05:31;7.32;;;2.45;;
62654;SDS011;48717;55.556;37.816;2023-04-24T13:07:59;2.85;;;2.60;;
62654;SDS011;48717;55.556;37.816;2023-04-24T13:10:26;4.78;;;2.90;;
62654;SDS011;48717;55.556;37.816;2023-04-24T13:12:54;8.98;;;3.00;;
62654;SDS011;48717;55.556;37.816;2023-04-24T13:15:21;4.38;;;2.80;;
62654;SDS011;48717;55.556;37.816;2023-04-24T13:17:49;5.88;;;3.00;;
62654;SDS011;48717;55.556;37.816;2023-04-24T13:20:16;4.35;;;2.58;;
62654;SDS011;48717;55.556;37.816;2023-04-24T13:22:44;9.60;;;3.22;;
62654;SDS011;48717;55.556;37.816;2023-04-24T13:25:11;6.78;;;3.22;;
62654;SDS011;48717;55.556;37.816;2023-04-24T13:27:38;7.68;;;3.08;;
62654;SDS011;48717;55.556;37.816;2023-04-24T13:30:06;5.63;;;2.63;;
62654;SDS011;48717;55.556;37.816;2023-04-24T13:32:36;4.07;;;3.13;;
62654;SDS011;48717;55.556;37.816;2023-04-24T13:35:03;9.95;;;3.30;;
62654;SDS011;48717;55.556;37.816;2023-04-24T13:37:32;11.35;;;3.65;;
62654;SDS011;48717;55.556;37.816;2023-04-24T13:39:59;3.65;;;2.60;;
62654;SDS011;48717;55.556;37.816;2023-04-24T13:42:29;7.78;;;3.30;;
62654;SDS011;48717;55.556;37.816;2023-04-24T13:44:57;15.85;;;3.38;;
62654;SDS011;48717;55.556;37.816;2023-04-24T13:47:24;14.23;;;2.83;;
62654;SDS011;48717;55.556;37.816;2023-04-24T13:49:52;5.60;;;3.17;;
62654;SDS011;48717;55.556;37.816;2023-04-24T13:52:20;15.32;;;3.35;;
62654;SDS011;48717;55.556;37.816;2023-04-24T13:54:47;4.88;;;2.72;;
62654;SDS011;48717;55.556;37.816;2023-04-24T13:57:15;4.30;;;3.08;;
62654;SDS011;48717;55.556;37.816;2023-04-24T13:59:43;8.63;;;3.08;;
62654;SDS011;48717;55.556;37.816;2023-04-24T14:02:14;6.93;;;3.72;;
62654;SDS011;48717;55.556;37.816;2023-04-24T14:04:41;7.32;;;3.40;;
62654;SDS011;48717;55.556;37.816;2023-04-24T14:07:09;6.35;;;3.42;;
62654;SDS011;48717;55.556;37.816;2023-04-24T14:12:08;6.05;;;3.03;;
62654;SDS011;48717;55.556;37.816;2023-04-24T14:14:35;8.10;;;3.70;;
62654;SDS011;48717;55.556;37.816;2023-04-24T14:17:02;10.10;;;3.25;;
62654;SDS011;48717;55.556;37.816;2023-04-24T14:19:29;6.70;;;3.20;;
62654;SDS011;48717;55.556;37.816;2023-04-24T14:21:56;7.57;;;3.00;;
62654;SDS011;48717;55.556;37.816;2023-04-24T14:24:24;8.48;;;3.30;;
62654;SDS011;48717;55.556;37.816;2023-04-24T14:26:51;9.57;;;3.20;;
62654;SDS011;48717;55.556;37.816;2023-04-24T14:29:19;4.72;;;3.33;;
62654;SDS011;48717;55.556;37.816;2023-04-24T14:31:46;12.52;;;4.85;;
62654;SDS011;48717;55.556;37.816;2023-04-24T14:34:13;12.60;;;3.80;;
62654;SDS011;48717;55.556;37.816;2023-04-24T14:36:41;13.75;;;3.35;;
62654;SDS011;48717;55.556;37.816;2023-04-24T14:39:08;7.65;;;4.15;;
62654;SDS011;48717;55.556;37.816;2023-04-24T14:41:36;7.38;;;3.38;;
62654;SDS011;48717;55.556;37.816;2023-04-24T14:44:04;12.48;;;3.92;;
62654;SDS011;48717;55.556;37.816;2023-04-24T14:46:32;5.65;;;3.33;;
62654;SDS011;48717;55.556;37.816;2023-04-24T14:48:59;6.53;;;3.10;;
62654;SDS011;48717;55.556;37.816;2023-04-24T14:51:26;7.88;;;3.17;;
62654;SDS011;48717;55.556;37.816;2023-04-24T14:53:54;6.32;;;3.67;;